sensor_id;sensor_type;location;lat;lon;timestamp;P1;durP1;ratioP1;P2;durP2;ratioP2
36787;SDS011;22738;45.560;9.434;2023-05-19T00:03:48;10.07;;;5.60;;
36787;SDS011;22738;45.560;9.434;2023-05-19T00:10:33;8.57;;;5.80;;
36787;SDS011;22738;45.560;9.434;2023-05-19T00:17:15;22.33;;;6.50;;
36787;SDS011;22738;45.560;9.434;2023-05-19T00:23:57;12.18;;;7.35;;
36787;SDS011;22738;45.560;9.434;2023-05-19T00:30:38;10.02;;;5.63;;
36787;SDS011;22738;45.560;9.434;2023-05-19T00:37:19;14.57;;;6.20;;
36787;SDS011;22738;45.560;9.434;2023-05-19T00:44:00;9.15;;;5.65;;
36787;SDS011;22738;45.560;9.434;2023-05-19T00:50:41;8.75;;;5.80;;
36787;SDS011;22738;45.560;9.434;2023-05-19T00:57:24;11.35;;;6.03;;
36787;SDS011;22738;45.560;9.434;2023-05-19T01:04:06;12.45;;;5.18;;
36787;SDS011;22738;45.560;9.434;2023-05-19T01:10:49;9.30;;;6.15;;
36787;SDS011;22738;45.560;9.434;2023-05-19T01:24:30;17.90;;;6.40;;
36787;SDS011;22738;45.560;9.434;2023-05-19T01:31:24;8.50;;;5.65;;
36787;SDS011;22738;45.560;9.434;2023-05-19T01:38:08;9.40;;;5.85;;
36787;SDS011;22738;45.560;9.434;2023-05-19T01:44:51;10.52;;;5.45;;
36787;SDS011;22738;45.560;9.434;2023-05-19T01:51:33;10.48;;;6.57;;
36787;SDS011;22738;45.560;9.434;2023-05-19T02:05:12;11.43;;;5.90;;
36787;SDS011;22738;45.560;9.434;2023-05-19T02:12:15;16.48;;;6.30;;
36787;SDS011;22738;45.560;9.434;2023-05-19T02:19:00;10.63;;;6.47;;
36787;SDS011;22738;45.560;9.434;2023-05-19T02:25:41;8.35;;;5.70;;
36787;SDS011;22738;45.560;9.434;2023-05-19T02:32:22;11.55;;;6.68;;
36787;SDS011;22738;45.560;9.434;2023-05-19T02:39:03;14.98;;;7.03;;
36787;SDS011;22738;45.560;9.434;2023-05-19T02:45:44;10.90;;;6.40;;
36787;SDS011;22738;45.560;9.434;2023-05-19T02:52:25;11.50;;;7.05;;
36787;SDS011;22738;45.560;9.434;2023-05-19T02:59:06;9.88;;;6.80;;
36787;SDS011;22738;45.560;9.434;2023-05-19T03:05:47;11.25;;;6.03;;
36787;SDS011;22738;45.560;9.434;2023-05-19T03:12:28;12.10;;;7.15;;
36787;SDS011;22738;45.560;9.434;2023-05-19T03:19:09;11.35;;;6.70;;
36787;SDS011;22738;45.560;9.434;2023-05-19T03:25:51;11.98;;;7.90;;
36787;SDS011;22738;45.560;9.434;2023-05-19T03:32:34;10.50;;;6.43;;
36787;SDS011;22738;45.560;9.434;2023-05-19T03:39:19;9.98;;;6.55;;
36787;SDS011;22738;45.560;9.434;2023-05-19T03:46:02;9.40;;;6.22;;
36787;SDS011;22738;45.560;9.434;2023-05-19T03:53:01;9.73;;;5.20;;
36787;SDS011;22738;45.560;9.434;2023-05-19T03:59:46;11.65;;;5.63;;
36787;SDS011;22738;45.560;9.434;2023-05-19T04:06:27;9.25;;;5.85;;
36787;SDS011;22738;45.560;9.434;2023-05-19T04:13:08;10.75;;;5.45;;
36787;SDS011;22738;45.560;9.434;2023-05-19T04:19:49;7.68;;;5.10;;
36787;SDS011;22738;45.560;9.434;2023-05-19T04:26:30;8.35;;;5.53;;
36787;SDS011;22738;45.560;9.434;2023-05-19T04:33:13;19.23;;;6.60;;
36787;SDS011;22738;45.560;9.434;2023-05-19T04:39:56;9.57;;;5.90;;
36787;SDS011;22738;45.560;9.434;2023-05-19T04:46:39;15.35;;;5.85;;
36787;SDS011;22738;45.560;9.434;2023-05-19T04:53:22;12.27;;;6.53;;
36787;SDS011;22738;45.560;9.434;2023-05-19T05:07:03;11.25;;;5.90;;
36787;SDS011;22738;45.560;9.434;2023-05-19T05:13:45;10.25;;;5.88;;
36787;SDS011;22738;45.560;9.434;2023-05-19T05:20:27;8.35;;;5.68;;
36787;SDS011;22738;45.560;9.434;2023-05-19T05:27:08;9.77;;;5.63;;
36787;SDS011;22738;45.560;9.434;2023-05-19T05:33:51;10.15;;;6.10;;
36787;SDS011;22738;45.560;9.434;2023-05-19T05:40:36;11.93;;;6.20;;
36787;SDS011;22738;45.560;9.434;2023-05-19T05:47:18;9.70;;;5.78;;
36787;SDS011;22738;45.560;9.434;2023-05-19T05:54:01;15.83;;;6.77;;
36787;SDS011;22738;45.560;9.434;2023-05-19T06:00:51;11.55;;;6.55;;
36787;SDS011;22738;45.560;9.434;2023-05-19T06:07:34;12.15;;;6.47;;
36787;SDS011;22738;45.560;9.434;2023-05-19T06:14:20;9.13;;;5.45;;
36787;SDS011;22738;45.560;9.434;2023-05-19T06:21:21;10.68;;;6.22;;
36787;SDS011;22738;45.560;9.434;2023-05-19T06:28:02;12.93;;;5.88;;
36787;SDS011;22738;45.560;9.434;2023-05-19T06:34:43;13.70;;;7.10;;
36787;SDS011;22738;45.560;9.434;2023-05-19T06:41:25;16.55;;;6.50;;
36787;SDS011;22738;45.560;9.434;2023-05-19T06:48:06;10.02;;;6.18;;
36787;SDS011;22738;45.560;9.434;2023-05-19T06:54:48;11.25;;;6.35;;
36787;SDS011;22738;45.560;9.434;2023-05-19T07:01:30;16.40;;;5.45;;
36787;SDS011;22738;45.560;9.434;2023-05-19T07:08:13;11.55;;;6.13;;
36787;SDS011;22738;45.560;9.434;2023-05-19T07:14:54;13.40;;;5.40;;
36787;SDS011;22738;45.560;9.434;2023-05-19T07:21:39;10.98;;;5.25;;
36787;SDS011;22738;45.560;9.434;2023-05-19T07:28:22;12.53;;;5.37;;
36787;SDS011;22738;45.560;9.434;2023-05-19T07:35:04;12.25;;;5.95;;
36787;SDS011;22738;45.560;9.434;2023-05-19T07:41:46;14.88;;;5.97;;
36787;SDS011;22738;45.560;9.434;2023-05-19T07:48:32;13.88;;;5.82;;
36787;SDS011;22738;45.560;9.434;2023-05-19T07:55:13;13.40;;;5.75;;
36787;SDS011;22738;45.560;9.434;2023-05-19T08:01:55;12.70;;;6.18;;
36787;SDS011;22738;45.560;9.434;2023-05-19T08:08:36;11.15;;;5.65;;
36787;SDS011;22738;45.560;9.434;2023-05-19T08:15:17;12.93;;;6.22;;
36787;SDS011;22738;45.560;9.434;2023-05-19T08:21:59;14.23;;;5.70;;
36787;SDS011;22738;45.560;9.434;2023-05-19T08:28:42;8.65;;;5.10;;
36787;SDS011;22738;45.560;9.434;2023-05-19T08:35:23;13.55;;;6.60;;
36787;SDS011;22738;45.560;9.434;2023-05-19T08:42:04;10.38;;;5.28;;
36787;SDS011;22738;45.560;9.434;2023-05-19T08:48:47;10.65;;;5.15;;
36787;SDS011;22738;45.560;9.434;2023-05-19T08:55:35;12.35;;;6.13;;
36787;SDS011;22738;45.560;9.434;2023-05-19T09:02:21;10.52;;;5.63;;
36787;SDS011;22738;45.560;9.434;2023-05-19T09:09:03;9.73;;;6.13;;
36787;SDS011;22738;45.560;9.434;2023-05-19T09:15:44;16.30;;;7.43;;
36787;SDS011;22738;45.560;9.434;2023-05-19T09:22:26;12.60;;;6.53;;
36787;SDS011;22738;45.560;9.434;2023-05-19T09:29:11;9.80;;;6.57;;
36787;SDS011;22738;45.560;9.434;2023-05-19T09:35:53;18.02;;;7.25;;
36787;SDS011;22738;45.560;9.434;2023-05-19T09:42:36;13.63;;;7.30;;
36787;SDS011;22738;45.560;9.434;2023-05-19T09:49:23;12.13;;;6.70;;
36787;SDS011;22738;45.560;9.434;2023-05-19T09:56:10;12.50;;;6.65;;
36787;SDS011;22738;45.560;9.434;2023-05-19T10:02:54;15.23;;;7.15;;
36787;SDS011;22738;45.560;9.434;2023-05-19T10:09:37;13.80;;;6.70;;
36787;SDS011;22738;45.560;9.434;2023-05-19T10:16:20;12.63;;;7.85;;
36787;SDS011;22738;45.560;9.434;2023-05-19T10:23:04;12.80;;;7.35;;
36787;SDS011;22738;45.560;9.434;2023-05-19T10:29:47;14.13;;;8.32;;
36787;SDS011;22738;45.560;9.434;2023-05-19T10:36:54;13.23;;;7.38;;
36787;SDS011;22738;45.560;9.434;2023-05-19T10:51:02;14.98;;;7.90;;
36787;SDS011;22738;45.560;9.434;2023-05-19T10:57:53;16.73;;;8.77;;
36787;SDS011;22738;45.560;9.434;2023-05-19T11:04:48;16.52;;;9.30;;
36787;SDS011;22738;45.560;9.434;2023-05-19T11:11:45;14.27;;;8.43;;
36787;SDS011;22738;45.560;9.434;2023-05-19T11:18:26;14.88;;;8.98;;
36787;SDS011;22738;45.560;9.434;2023-05-19T11:25:10;17.60;;;8.77;;
36787;SDS011;22738;45.560;9.434;2023-05-19T11:31:51;18.77;;;9.50;;
36787;SDS011;22738;45.560;9.434;2023-05-19T11:38:33;14.88;;;9.15;;
36787;SDS011;22738;45.560;9.434;2023-05-19T11:45:15;18.08;;;9.52;;
36787;SDS011;22738;45.560;9.434;2023-05-19T11:51:56;18.27;;;10.80;;
36787;SDS011;22738;45.560;9.434;2023-05-19T11:58:40;15.65;;;9.88;;
36787;SDS011;22738;45.560;9.434;2023-05-19T12:05:24;17.75;;;9.85;;
36787;SDS011;22738;45.560;9.434;2023-05-19T12:12:07;15.32;;;9.88;;
36787;SDS011;22738;45.560;9.434;2023-05-19T12:18:48;17.30;;;9.52;;
36787;SDS011;22738;45.560;9.434;2023-05-19T12:25:29;16.85;;;9.90;;
36787;SDS011;22738;45.560;9.434;2023-05-19T12:32:11;18.45;;;9.43;;
36787;SDS011;22738;45.560;9.434;2023-05-19T12:38:53;17.08;;;9.52;;
36787;SDS011;22738;45.560;9.434;2023-05-19T12:45:34;18.77;;;9.55;;
36787;SDS011;22738;45.560;9.434;2023-05-19T12:52:16;19.40;;;11.02;;
36787;SDS011;22738;45.560;9.434;2023-05-19T12:58:59;23.63;;;11.05;;
36787;SDS011;22738;45.560;9.434;2023-05-19T13:05:40;20.70;;;11.95;;
36787;SDS011;22738;45.560;9.434;2023-05-19T13:12:24;24.65;;;11.93;;
36787;SDS011;22738;45.560;9.434;2023-05-19T13:19:05;19.48;;;11.45;;
36787;SDS011;22738;45.560;9.434;2023-05-19T13:25:46;17.50;;;11.82;;
36787;SDS011;22738;45.560;9.434;2023-05-19T13:32:27;23.25;;;12.27;;
36787;SDS011;22738;45.560;9.434;2023-05-19T13:39:08;20.83;;;11.13;;
36787;SDS011;22738;45.560;9.434;2023-05-19T13:45:49;25.60;;;12.48;;
36787;SDS011;22738;45.560;9.434;2023-05-19T13:52:30;22.10;;;13.00;;
36787;SDS011;22738;45.560;9.434;2023-05-19T13:59:12;20.85;;;12.15;;
36787;SDS011;22738;45.560;9.434;2023-05-19T14:05:53;20.70;;;12.15;;
36787;SDS011;22738;45.560;9.434;2023-05-19T14:12:35;23.95;;;13.02;;
36787;SDS011;22738;45.560;9.434;2023-05-19T14:19:16;24.13;;;13.95;;
36787;SDS011;22738;45.560;9.434;2023-05-19T14:25:57;19.45;;;12.02;;
36787;SDS011;22738;45.560;9.434;2023-05-19T14:32:40;26.70;;;12.05;;
36787;SDS011;22738;45.560;9.434;2023-05-19T14:39:21;24.17;;;13.70;;
36787;SDS011;22738;45.560;9.434;2023-05-19T14:46:03;20.00;;;12.60;;
36787;SDS011;22738;45.560;9.434;2023-05-19T14:52:44;23.17;;;12.70;;
36787;SDS011;22738;45.560;9.434;2023-05-19T14:59:25;23.25;;;13.27;;
36787;SDS011;22738;45.560;9.434;2023-05-19T15:06:09;25.73;;;13.63;;
36787;SDS011;22738;45.560;9.434;2023-05-19T15:12:50;23.38;;;13.75;;
36787;SDS011;22738;45.560;9.434;2023-05-19T15:19:33;23.98;;;12.85;;
36787;SDS011;22738;45.560;9.434;2023-05-19T15:26:14;19.02;;;11.93;;
36787;SDS011;22738;45.560;9.434;2023-05-19T15:32:56;17.88;;;11.50;;
36787;SDS011;22738;45.560;9.434;2023-05-19T15:39:38;21.63;;;11.50;;
36787;SDS011;22738;45.560;9.434;2023-05-19T15:46:19;18.05;;;11.27;;
36787;SDS011;22738;45.560;9.434;2023-05-19T15:53:01;19.52;;;10.65;;
36787;SDS011;22738;45.560;9.434;2023-05-19T15:59:42;20.30;;;9.55;;
36787;SDS011;22738;45.560;9.434;2023-05-19T16:06:24;20.75;;;9.15;;
36787;SDS011;22738;45.560;9.434;2023-05-19T16:13:07;13.63;;;8.63;;
36787;SDS011;22738;45.560;9.434;2023-05-19T16:19:48;13.95;;;7.80;;
36787;SDS011;22738;45.560;9.434;2023-05-19T16:26:29;17.48;;;8.63;;
36787;SDS011;22738;45.560;9.434;2023-05-19T16:33:10;16.58;;;8.73;;
36787;SDS011;22738;45.560;9.434;2023-05-19T16:39:52;14.07;;;8.68;;
36787;SDS011;22738;45.560;9.434;2023-05-19T16:46:33;17.48;;;9.07;;
36787;SDS011;22738;45.560;9.434;2023-05-19T16:53:14;16.42;;;9.02;;
36787;SDS011;22738;45.560;9.434;2023-05-19T16:59:55;17.38;;;9.40;;
36787;SDS011;22738;45.560;9.434;2023-05-19T17:06:38;16.25;;;8.13;;
36787;SDS011;22738;45.560;9.434;2023-05-19T17:13:20;13.93;;;8.85;;
36787;SDS011;22738;45.560;9.434;2023-05-19T17:20:01;14.70;;;8.43;;
36787;SDS011;22738;45.560;9.434;2023-05-19T17:26:43;16.95;;;8.73;;
36787;SDS011;22738;45.560;9.434;2023-05-19T17:33:24;13.30;;;8.93;;
36787;SDS011;22738;45.560;9.434;2023-05-19T17:40:06;16.25;;;9.25;;
36787;SDS011;22738;45.560;9.434;2023-05-19T17:46:48;15.43;;;9.45;;
36787;SDS011;22738;45.560;9.434;2023-05-19T17:53:29;15.68;;;9.50;;
36787;SDS011;22738;45.560;9.434;2023-05-19T18:00:10;16.85;;;9.02;;
36787;SDS011;22738;45.560;9.434;2023-05-19T18:06:52;19.98;;;10.05;;
36787;SDS011;22738;45.560;9.434;2023-05-19T18:13:35;18.30;;;10.32;;
36787;SDS011;22738;45.560;9.434;2023-05-19T18:20:17;19.83;;;11.10;;
36787;SDS011;22738;45.560;9.434;2023-05-19T18:26:58;18.25;;;9.88;;
36787;SDS011;22738;45.560;9.434;2023-05-19T18:33:39;18.67;;;10.35;;
36787;SDS011;22738;45.560;9.434;2023-05-19T18:40:20;26.15;;;12.43;;
36787;SDS011;22738;45.560;9.434;2023-05-19T18:47:01;24.83;;;10.88;;
36787;SDS011;22738;45.560;9.434;2023-05-19T18:53:44;21.95;;;10.88;;
36787;SDS011;22738;45.560;9.434;2023-05-19T19:00:30;18.98;;;10.88;;
36787;SDS011;22738;45.560;9.434;2023-05-19T19:07:17;21.10;;;10.98;;
36787;SDS011;22738;45.560;9.434;2023-05-19T19:13:58;22.75;;;12.52;;
36787;SDS011;22738;45.560;9.434;2023-05-19T19:20:41;23.38;;;13.10;;
36787;SDS011;22738;45.560;9.434;2023-05-19T19:27:24;20.73;;;12.40;;
36787;SDS011;22738;45.560;9.434;2023-05-19T19:34:11;20.27;;;13.00;;
36787;SDS011;22738;45.560;9.434;2023-05-19T19:40:53;25.85;;;13.27;;
36787;SDS011;22738;45.560;9.434;2023-05-19T19:47:35;26.33;;;14.73;;
36787;SDS011;22738;45.560;9.434;2023-05-19T19:54:17;23.58;;;12.68;;
36787;SDS011;22738;45.560;9.434;2023-05-19T20:00:59;30.92;;;15.65;;
36787;SDS011;22738;45.560;9.434;2023-05-19T20:07:41;27.58;;;16.45;;
36787;SDS011;22738;45.560;9.434;2023-05-19T20:14:22;32.83;;;17.75;;
36787;SDS011;22738;45.560;9.434;2023-05-19T20:21:03;27.67;;;16.85;;
36787;SDS011;22738;45.560;9.434;2023-05-19T20:27:46;32.38;;;18.17;;
36787;SDS011;22738;45.560;9.434;2023-05-19T20:34:27;35.95;;;19.92;;
36787;SDS011;22738;45.560;9.434;2023-05-19T20:41:08;33.35;;;20.10;;
36787;SDS011;22738;45.560;9.434;2023-05-19T20:47:49;38.42;;;22.05;;
36787;SDS011;22738;45.560;9.434;2023-05-19T20:54:30;40.17;;;23.60;;
36787;SDS011;22738;45.560;9.434;2023-05-19T21:01:11;40.00;;;22.83;;
36787;SDS011;22738;45.560;9.434;2023-05-19T21:07:52;36.70;;;22.88;;
36787;SDS011;22738;45.560;9.434;2023-05-19T21:14:33;35.10;;;21.05;;
36787;SDS011;22738;45.560;9.434;2023-05-19T21:21:14;37.78;;;21.52;;
36787;SDS011;22738;45.560;9.434;2023-05-19T21:27:55;41.22;;;24.42;;
36787;SDS011;22738;45.560;9.434;2023-05-19T21:34:37;39.78;;;23.17;;
36787;SDS011;22738;45.560;9.434;2023-05-19T21:41:18;35.15;;;21.33;;
36787;SDS011;22738;45.560;9.434;2023-05-19T21:48:00;33.83;;;18.77;;
36787;SDS011;22738;45.560;9.434;2023-05-19T21:54:41;33.53;;;19.80;;
36787;SDS011;22738;45.560;9.434;2023-05-19T22:01:22;27.42;;;16.63;;
36787;SDS011;22738;45.560;9.434;2023-05-19T22:08:03;26.80;;;15.98;;
36787;SDS011;22738;45.560;9.434;2023-05-19T22:14:45;26.02;;;16.38;;
36787;SDS011;22738;45.560;9.434;2023-05-19T22:21:26;33.53;;;18.75;;
36787;SDS011;22738;45.560;9.434;2023-05-19T22:28:07;33.33;;;19.52;;
36787;SDS011;22738;45.560;9.434;2023-05-19T22:34:48;33.03;;;17.25;;
36787;SDS011;22738;45.560;9.434;2023-05-19T22:41:30;40.50;;;19.60;;
36787;SDS011;22738;45.560;9.434;2023-05-19T22:48:11;32.13;;;18.00;;
36787;SDS011;22738;45.560;9.434;2023-05-19T22:54:52;34.60;;;18.52;;
36787;SDS011;22738;45.560;9.434;2023-05-19T23:01:33;31.67;;;18.50;;
36787;SDS011;22738;45.560;9.434;2023-05-19T23:08:14;32.47;;;19.08;;
36787;SDS011;22738;45.560;9.434;2023-05-19T23:14:55;33.85;;;19.08;;
36787;SDS011;22738;45.560;9.434;2023-05-19T23:21:36;35.58;;;20.35;;
36787;SDS011;22738;45.560;9.434;2023-05-19T23:28:17;32.67;;;17.48;;
36787;SDS011;22738;45.560;9.434;2023-05-19T23:35:11;36.25;;;19.70;;
36787;SDS011;22738;45.560;9.434;2023-05-19T23:41:53;30.95;;;18.67;;
36787;SDS011;22738;45.560;9.434;2023-05-19T23:48:34;36.40;;;20.30;;
36787;SDS011;22738;45.560;9.434;2023-05-19T23:55:16;37.60;;;19.25;;
